ADDS METAR Data INFO
IDs: Format: Raw Decoded Include TAF

Data at: 1931 UTC 19 Jul 2018

KSGH 191856Z AUTO 14006KT 10SM 27/16 A3003 RMK AO2 SLP166 T02720156 $
KSGH 191756Z AUTO 10009KT 070V130 10SM 27/14 A3005 RMK AO2 SLP172 T02670139 10267 20167 58014 $
KSGH 191656Z AUTO 09008KT 10SM 25/14 A3006 RMK AO2 SLP177 T02500139 $
KSGH 191556Z AUTO 15009KT 10SM 26/14 A3008 RMK AO2 SLP182 T02560144 $
KSGH 191456Z AUTO 14010KT 10SM 24/14 A3009 RMK AO2 SLP186 T02440144 50003 $
KSGH 191356Z AUTO 14008KT 10SM 23/16 A3009 RMK AO2 SLP186 T02280161 $
KSGH 191256Z AUTO 13006KT 10SM 21/16 A3009 RMK AO2 SLP185 T02060156 $
KSGH 191156Z AUTO 09003KT 10SM 17/14 A3008 RMK AO2 SLP183 T01670144 10167 20150 52003 $
KSGH 191056Z AUTO 13006KT 10SM 16/13 A3008 RMK AO2 SLP182 T01560133 $
KSGH 190956Z AUTO 11006KT 10SM 15/13 A3007 RMK AO2 SLP181 T01500128 $
KSGH 190856Z AUTO 11006KT 10SM 15/13 A3007 RMK AO2 SLP180 T01500128 55003 $
KSGH 190756Z AUTO 11007KT 10SM 16/13 A3006 RMK AO2 SLP177 T01560133 $
KSGH 190656Z AUTO 10007KT 10SM 16/13 A3008 RMK AO2 SLP180 T01610133 $
KSGH 190556Z AUTO 08004KT 10SM 16/13 A3008 RMK AO2 SLP182 T01610133 10250 20156 53005 $
KSGH 190456Z AUTO 09004KT 10SM 17/14 A3008 RMK AO2 SLP181 T01670139 $
KSGH 190356Z AUTO 11003KT 10SM 17/14 A3006 RMK AO2 SLP177 T01720144 402720144 $
KSGH 190256Z AUTO 06005KT 10SM 18/14 A3006 RMK AO2 SLP176 T01830144 53011 $
KSGH 190156Z AUTO 06006KT 10SM 19/15 A3005 RMK AO2 SLP171 T01940150 $
KSGH 190056Z AUTO 08003KT 10SM 22/14 A3004 RMK AO2 SLP168 T02220144 $
KSGH 182356Z AUTO 09003KT 10SM 25/15 A3003 RMK AO2 SLP165 T02500150 10272 20250 56009 $
KSGH 182256Z AUTO 08007KT 10SM 26/13 A3003 RMK AO2 SLP166 T02610133 $
KSGH 182156Z AUTO 06006KT 10SM 26/14 A3005 RMK AO2 SLP171 T02610139 $
KSGH 182056Z AUTO 12003KT 10SM 26/13 A3006 RMK AO2 SLP174 T02560133 58008 $
KSGH 181956Z AUTO VRB04KT 10SM 26/13 A3007 RMK AO2 SLP177 T02610128 $
KSGH 181856Z AUTO VRB04KT 10SM 26/13 A3008 RMK AO2 SLP181 T02610128 $
KSGH 181756Z AUTO 00000KT 10SM 27/13 A3008 RMK AO2 SLP182 T02670128 10267 20172 58004 $
KSGH 181656Z AUTO 07007KT 10SM 25/14 A3009 RMK AO2 SLP186 T02500144 $
KSGH 181556Z AUTO 08008KT 10SM 25/16 A3009 RMK AO2 SLP186 T02500161 $
KSGH 181456Z AUTO 09005KT 10SM 24/17 A3009 RMK AO2 SLP186 T02390172 50001 $
KSGH 181356Z AUTO 10006KT 10SM 23/17 A3010 RMK AO2 SLP187 T02280172 $
KSGH 181256Z AUTO 09005KT 10SM 21/16 A3009 RMK AO2 SLP186 T02060161 $
KSGH 181156Z AUTO 00000KT 10SM 17/16 A3009 RMK AO2 SLP185 T01720161 10183 20144 53011 $
KSGH 181056Z AUTO 00000KT 5SM BR 14/14 A3007 RMK AO2 SLP180 T01440144 $
KSGH 180956Z AUTO 00000KT 10SM 15/15 A3006 RMK AO2 SLP176 T01500150 $
KSGH 180856Z AUTO 00000KT 10SM 16/16 A3006 RMK AO2 SLP172 T01610156 50000 $
KSGH 180756Z AUTO 36003KT 10SM 17/16 A3006 RMK AO2 SLP172 T01670156 $